Time;durP1;ratioP1;P1;durP2;ratioP2;P2;SDS_P1;SDS_P2;PMS_P1;PMS_P2;Temp;Humidity;BMP_temperature;BMP_pressure;BME280_temperature;BME280_humidity;BME280_pressure;Samples;Min_cycle;Max_cycle;Signal;HPM_P1;HPM_P2
2022/11/19 00:00:20;;;;;;;5.00;4.50;;;16.90;59.30;;;;;;5053358;28;20699;-68
2022/11/19 00:02:45;;;;;;;4.63;3.88;;;16.90;59.40;;;;;;5054068;28;20642;-67
2022/11/19 00:05:11;;;;;;;4.47;4.07;;;16.90;59.50;;;;;;5054549;28;20626;-68
2022/11/19 00:07:36;;;;;;;4.45;4.10;;;16.80;59.50;;;;;;5054799;28;20175;-67
2022/11/19 00:10:02;;;;;;;4.20;3.90;;;16.80;59.60;;;;;;5053980;28;20171;-67
2022/11/19 00:15:12;;;;;;;4.75;4.35;;;16.80;59.70;;;;;;5053043;28;20229;-68
2022/11/19 00:17:38;;;;;;;4.90;4.50;;;16.70;59.60;;;;;;5053917;28;20172;-68
2022/11/19 00:20:03;;;;;;;4.20;3.90;;;16.60;59.70;;;;;;5054120;28;20290;-68
2022/11/19 00:22:29;;;;;;;4.90;4.28;;;16.60;59.60;;;;;;5054692;28;20282;-68
2022/11/19 00:24:54;;;;;;;4.95;4.55;;;16.60;59.70;;;;;;5053862;28;20225;-67
2022/11/19 00:27:20;;;;;;;4.32;4.03;;;16.60;59.70;;;;;;5054039;28;20233;-67
2022/11/19 00:29:45;;;;;;;5.43;4.43;;;16.60;59.70;;;;;;5054326;28;20475;-66
2022/11/19 00:32:11;;;;;;;4.55;4.18;;;16.60;59.70;;;;;;5053118;28;20170;-66
2022/11/19 00:34:36;;;;;;;4.90;4.40;;;16.50;59.70;;;;;;5052000;28;20175;-66
2022/11/19 00:37:02;;;;;;;4.78;4.28;;;16.50;59.70;;;;;;5053135;28;20213;-66
2022/11/19 00:39:27;;;;;;;5.05;4.57;;;16.50;59.70;;;;;;5054154;28;20298;-67
2022/11/19 00:41:53;;;;;;;4.85;4.40;;;16.50;59.60;;;;;;5054015;28;20562;-67
2022/11/19 00:44:18;;;;;;;5.18;4.78;;;16.50;59.60;;;;;;5052962;28;20181;-68
2022/11/19 00:46:44;;;;;;;4.43;4.03;;;16.50;59.70;;;;;;5054102;28;20172;-67
2022/11/19 00:49:09;;;;;;;4.72;4.32;;;16.50;59.60;;;;;;5053727;28;20229;-67
2022/11/19 00:51:35;;;;;;;4.80;4.40;;;16.40;59.50;;;;;;5053468;28;20221;-67
2022/11/19 00:54:01;;;;;;;4.95;4.55;;;16.40;59.50;;;;;;5053861;28;20171;-67
2022/11/19 00:56:26;;;;;;;4.65;4.25;;;16.40;59.50;;;;;;5054123;28;20266;-67
2022/11/19 00:58:52;;;;;;;4.80;4.40;;;16.40;59.50;;;;;;5053079;28;20199;-67
2022/11/19 01:01:19;;;;;;;4.88;4.45;;;16.40;59.60;;;;;;5053629;28;20703;-68
2022/11/19 01:03:44;;;;;;;4.88;4.47;;;16.30;59.50;;;;;;5053684;28;20175;-67
2022/11/19 01:06:10;;;;;;;4.82;4.32;;;16.30;59.50;;;;;;5053361;28;20183;-67
2022/11/19 01:08:36;;;;;;;5.00;4.60;;;16.30;59.60;;;;;;5053586;28;20650;-67
2022/11/19 01:11:14;;;;;;;5.15;4.75;;;16.30;59.60;;;;;;5053399;28;20179;-67
2022/11/19 01:13:39;;;;;;;4.72;4.20;;;16.30;59.60;;;;;;5052745;28;20226;-67
2022/11/19 01:16:15;;;;;;;4.75;4.35;;;16.30;59.60;;;;;;5053124;28;20660;-67
2022/11/19 01:18:41;;;;;;;4.68;4.28;;;16.30;59.50;;;;;;5053641;28;20179;-67
2022/11/19 01:21:07;;;;;;;4.95;4.55;;;16.20;59.40;;;;;;5052734;28;20201;-68
2022/11/19 01:23:33;;;;;;;5.50;5.00;;;16.20;59.50;;;;;;5053658;28;20179;-67
2022/11/19 01:25:59;;;;;;;5.15;4.75;;;16.20;59.40;;;;;;5053540;28;20171;-67
2022/11/19 01:28:24;;;;;;;5.88;4.65;;;16.20;59.50;;;;;;5052451;28;20178;-67
2022/11/19 01:30:50;;;;;;;4.85;4.45;;;16.20;59.50;;;;;;5053258;28;20181;-67
2022/11/19 01:33:15;;;;;;;5.00;4.60;;;16.20;59.60;;;;;;5052228;28;20175;-67
2022/11/19 01:35:41;;;;;;;5.10;4.70;;;16.20;59.50;;;;;;5053316;28;20171;-67
2022/11/19 01:38:06;;;;;;;5.28;4.88;;;16.20;59.70;;;;;;5053003;28;20171;-67
2022/11/19 01:40:32;;;;;;;5.18;4.78;;;16.10;59.50;;;;;;5052477;28;20206;-67
2022/11/19 01:42:58;;;;;;;5.40;5.00;;;16.10;59.40;;;;;;5053143;28;20177;-67
2022/11/19 01:45:31;;;;;;;5.18;4.68;;;16.10;59.40;;;;;;5052769;28;20171;-67
2022/11/19 01:47:59;;;;;;;6.07;5.05;;;16.10;60.00;;;;;;5052302;28;20262;-67
2022/11/19 01:50:24;;;;;;;5.13;4.72;;;16.10;59.60;;;;;;5051831;28;20182;-67
2022/11/19 01:52:50;;;;;;;5.63;5.18;;;16.10;59.40;;;;;;5052978;28;20183;-67
2022/11/19 01:55:16;;;;;;;5.68;5.18;;;16.00;59.30;;;;;;5051967;28;20171;-67
2022/11/19 01:57:41;;;;;;;5.20;4.80;;;16.00;59.20;;;;;;5051927;28;20191;-66
2022/11/19 02:00:07;;;;;;;5.38;4.90;;;16.00;59.20;;;;;;5051284;28;20324;-67
2022/11/19 02:02:33;;;;;;;5.05;4.65;;;16.00;59.30;;;;;;5052294;28;20171;-67
2022/11/19 02:04:59;;;;;;;5.65;5.25;;;16.00;59.10;;;;;;5052870;28;20185;-67
2022/11/19 02:07:28;;;;;;;5.50;5.10;;;16.00;59.20;;;;;;5052975;28;20520;-67
2022/11/19 02:09:54;;;;;;;6.25;5.75;;;16.00;59.20;;;;;;5051996;28;20210;-67
2022/11/19 02:12:23;;;;;;;6.10;5.60;;;16.00;59.10;;;;;;5051183;28;20630;-67
2022/11/19 02:15:06;;;;;;;5.25;4.85;;;16.00;59.00;;;;;;5052597;28;20314;-68
2022/11/19 02:17:50;;;;;;;6.45;5.85;;;15.90;59.00;;;;;;5052086;28;20171;-67
2022/11/19 02:20:39;;;;;;;6.18;5.65;;;15.90;58.90;;;;;;5052257;28;20684;-67
2022/11/19 02:23:29;;;;;;;5.85;5.38;;;15.90;59.00;;;;;;5050585;28;20202;-69
2022/11/19 02:26:13;;;;;;;5.85;5.35;;;15.90;58.80;;;;;;5052755;28;20201;-67
2022/11/19 02:28:46;;;;;;;5.68;5.28;;;15.90;58.80;;;;;;5052737;28;20221;-67
2022/11/19 02:31:22;;;;;;;6.75;6.20;;;15.90;59.50;;;;;;5050376;28;20202;-67
2022/11/19 02:34:00;;;;;;;6.68;6.07;;;15.90;58.80;;;;;;5052814;28;20175;-66
2022/11/19 02:36:30;;;;;;;6.90;6.22;;;15.90;58.70;;;;;;5050765;28;20250;-67
2022/11/19 02:39:12;;;;;;;6.72;6.13;;;15.80;58.50;;;;;;5051308;28;20242;-67
2022/11/19 02:41:39;;;;;;;6.97;6.38;;;15.90;58.70;;;;;;5051338;28;20187;-67
2022/11/19 02:46:51;;;;;;;6.88;6.28;;;15.80;58.50;;;;;;5051582;28;20312;-67
2022/11/19 02:49:17;;;;;;;7.10;6.50;;;15.80;58.50;;;;;;5050899;28;20518;-67
2022/11/19 02:51:43;;;;;;;6.88;6.18;;;15.80;58.30;;;;;;5050596;28;20183;-67
2022/11/19 02:54:09;;;;;;;6.70;6.20;;;15.80;58.40;;;;;;5050749;28;20584;-67
2022/11/19 02:56:43;;;;;;;7.65;7.05;;;15.80;58.30;;;;;;5052551;28;20187;-67
2022/11/19 03:04:37;;;;;;;7.97;7.32;;;15.70;58.10;;;;;;5054535;28;20206;-68
2022/11/19 03:07:08;;;;;;;7.25;6.65;;;15.70;58.00;;;;;;5054791;28;20179;-67
2022/11/19 03:09:35;;;;;;;7.30;6.70;;;15.70;57.90;;;;;;5055959;28;20622;-67
2022/11/19 03:12:08;;;;;;;7.70;7.10;;;15.70;57.90;;;;;;5053755;28;20179;-68
2022/11/19 03:17:56;;;;;;;7.80;7.10;;;15.70;57.90;;;;;;5055034;28;20174;-68
2022/11/19 03:20:46;;;;;;;7.82;7.13;;;15.70;57.90;;;;;;5053542;28;20210;-68
2022/11/19 03:23:28;;;;;;;7.88;7.13;;;15.70;57.90;;;;;;5054249;28;20183;-68
2022/11/19 03:26:07;;;;;;;8.02;7.32;;;15.70;57.90;;;;;;5053903;28;20180;-67
2022/11/19 03:28:34;;;;;;;7.40;6.80;;;15.70;57.60;;;;;;5055833;28;20246;-66
2022/11/19 03:30:59;;;;;;;7.93;7.32;;;15.60;57.70;;;;;;5054179;28;20171;-67
2022/11/19 03:33:34;;;;;;;8.30;7.60;;;15.70;57.80;;;;;;5053924;28;20263;-67
2022/11/19 03:36:03;;;;;;;7.65;7.00;;;15.60;57.80;;;;;;5054186;28;20181;-67
2022/11/19 03:38:31;;;;;;;8.15;7.45;;;15.60;57.90;;;;;;5054195;28;20591;-67
2022/11/19 03:40:58;;;;;;;8.80;8.05;;;15.60;57.90;;;;;;5053364;28;20685;-67
2022/11/19 03:43:26;;;;;;;7.97;7.22;;;15.60;57.60;;;;;;5053910;28;20576;-67
2022/11/19 03:45:52;;;;;;;8.48;7.70;;;15.60;57.90;;;;;;5055262;28;20520;-67
2022/11/19 03:48:18;;;;;;;8.65;7.93;;;15.60;57.70;;;;;;5052986;28;20198;-67
2022/11/19 03:50:51;;;;;;;7.68;6.93;;;15.60;58.20;;;;;;5054232;28;20170;-67
2022/11/19 03:53:17;;;;;;;8.40;7.70;;;15.60;57.40;;;;;;5053975;28;20602;-67
2022/11/19 03:55:46;;;;;;;8.13;7.43;;;15.60;57.70;;;;;;5054498;28;20666;-67
2022/11/19 03:58:11;;;;;;;8.35;7.55;;;15.60;57.70;;;;;;5053572;28;20201;-67
2022/11/19 04:00:37;;;;;;;8.25;7.60;;;15.60;57.60;;;;;;5053635;28;20211;-67
2022/11/19 04:03:03;;;;;;;9.10;8.23;;;15.60;57.40;;;;;;5054187;28;20195;-67
2022/11/19 04:05:28;;;;;;;8.88;8.15;;;15.50;57.60;;;;;;5053854;28;20233;-67
2022/11/19 04:07:54;;;;;;;7.55;6.85;;;15.50;57.40;;;;;;5054201;28;20224;-67
2022/11/19 04:10:19;;;;;;;8.20;7.50;;;15.50;57.60;;;;;;5054537;28;20321;-67
2022/11/19 04:12:45;;;;;;;8.90;8.20;;;15.50;58.50;;;;;;5054901;28;20170;-67
2022/11/19 04:15:11;;;;;;;8.57;7.78;;;15.50;57.30;;;;;;5053440;28;20234;-68
2022/11/19 04:17:36;;;;;;;8.63;7.82;;;15.50;57.60;;;;;;5054703;28;20258;-67
2022/11/19 04:20:04;;;;;;;9.07;8.18;;;15.50;57.40;;;;;;5054237;28;20322;-68
2022/11/19 04:22:30;;;;;;;9.15;8.27;;;15.50;57.10;;;;;;5054028;28;20190;-67
2022/11/19 04:24:55;;;;;;;9.07;8.27;;;15.50;57.40;;;;;;5054607;28;20629;-69
2022/11/19 04:27:21;;;;;;;9.23;8.38;;;15.50;57.20;;;;;;5054161;28;20652;-67
2022/11/19 04:29:46;;;;;;;8.85;8.05;;;15.50;57.20;;;;;;5053609;28;20254;-67
2022/11/19 04:32:12;;;;;;;8.48;7.68;;;15.40;57.20;;;;;;5054029;28;20261;-67
2022/11/19 04:34:44;;;;;;;9.27;8.38;;;15.40;57.20;;;;;;5054446;28;20214;-66
2022/11/19 04:37:09;;;;;;;8.82;8.02;;;15.40;57.10;;;;;;5053412;28;20178;-67
2022/11/19 04:39:35;;;;;;;8.82;8.13;;;15.40;57.20;;;;;;5054327;28;20211;-68
2022/11/19 04:42:00;;;;;;;8.80;8.00;;;15.40;57.20;;;;;;5054027;28;20185;-68
2022/11/19 04:44:26;;;;;;;8.63;7.82;;;15.40;57.40;;;;;;5053440;28;20179;-67
2022/11/19 04:46:51;;;;;;;9.20;8.48;;;15.40;57.20;;;;;;5054314;28;20270;-67
2022/11/19 04:49:17;;;;;;;9.23;8.43;;;15.40;57.10;;;;;;5053975;28;20252;-68
2022/11/19 04:51:42;;;;;;;8.88;8.18;;;15.40;57.20;;;;;;5053700;28;20278;-67
2022/11/19 04:54:08;;;;;;;9.85;8.95;;;15.40;57.10;;;;;;5053786;28;20173;-67
2022/11/19 04:56:34;;;;;;;9.02;8.13;;;15.40;57.20;;;;;;5052703;28;20202;-67
2022/11/19 04:58:59;;;;;;;9.00;8.30;;;15.40;57.10;;;;;;5052668;28;20175;-67
2022/11/19 05:01:25;;;;;;;8.88;8.18;;;15.40;57.20;;;;;;5053815;28;20669;-68
2022/11/19 05:03:51;;;;;;;8.52;7.78;;;15.40;57.20;;;;;;5053970;28;20646;-68
2022/11/19 05:06:16;;;;;;;9.45;8.60;;;15.40;57.10;;;;;;5052725;28;20179;-68
2022/11/19 05:08:42;;;;;;;9.63;8.73;;;15.40;57.10;;;;;;5053681;28;20175;-68
2022/11/19 05:11:07;;;;;;;9.10;8.30;;;15.30;57.20;;;;;;5052851;28;20183;-68
2022/11/19 05:13:33;;;;;;;8.85;8.07;;;15.30;57.00;;;;;;5053305;28;20631;-68
2022/11/19 05:15:58;;;;;;;9.30;8.50;;;15.30;57.10;;;;;;5053522;28;20171;-68
2022/11/19 05:18:24;;;;;;;9.20;8.38;;;15.30;57.00;;;;;;5052387;28;20268;-68
2022/11/19 05:20:50;;;;;;;9.57;8.70;;;15.30;57.00;;;;;;5052913;28;20215;-68
2022/11/19 05:23:15;;;;;;;9.68;8.77;;;15.30;57.00;;;;;;5053198;28;20638;-69
2022/11/19 05:25:41;;;;;;;9.18;8.27;;;15.30;57.00;;;;;;5052822;28;20181;-68
2022/11/19 05:28:06;;;;;;;9.68;8.85;;;15.30;57.00;;;;;;5053223;28;20202;-67
2022/11/19 05:30:32;;;;;;;9.82;8.93;;;15.30;57.00;;;;;;5053534;28;20699;-67
2022/11/19 05:32:57;;;;;;;9.43;8.63;;;15.30;57.10;;;;;;5052491;28;20611;-67
2022/11/19 05:35:23;;;;;;;9.95;9.07;;;15.30;57.00;;;;;;5052848;28;20664;-68
2022/11/19 05:37:49;;;;;;;9.73;8.82;;;15.30;56.90;;;;;;5053250;28;20549;-68
2022/11/19 05:40:14;;;;;;;9.55;8.75;;;15.20;56.80;;;;;;5052132;28;20211;-69
2022/11/19 05:42:40;;;;;;;8.98;8.20;;;15.20;56.90;;;;;;5053310;28;20180;-68
2022/11/19 05:45:06;;;;;;;9.07;8.18;;;15.20;56.70;;;;;;5052688;28;20549;-68
2022/11/19 05:47:31;;;;;;;10.23;9.20;;;15.20;56.90;;;;;;5052484;28;20240;-68
2022/11/19 05:49:57;;;;;;;9.15;8.35;;;15.20;57.00;;;;;;5052874;28;20638;-67
2022/11/19 05:52:22;;;;;;;9.73;8.82;;;15.20;56.90;;;;;;5052843;28;20217;-68
2022/11/19 05:54:48;;;;;;;8.70;7.90;;;15.20;57.00;;;;;;5052237;28;20700;-68
2022/11/19 05:57:13;;;;;;;10.00;9.00;;;15.20;56.90;;;;;;5052708;28;20220;-67
2022/11/19 05:59:39;;;;;;;9.20;8.40;;;15.20;56.80;;;;;;5052948;28;20261;-68
2022/11/19 06:02:04;;;;;;;9.40;8.60;;;15.20;56.90;;;;;;5052043;28;20175;-67
2022/11/19 06:04:30;;;;;;;8.95;8.15;;;15.20;57.00;;;;;;5052896;28;20225;-68
2022/11/19 06:06:55;;;;;;;9.50;8.60;;;15.20;57.80;;;;;;5053024;28;20167;-67
2022/11/19 06:09:21;;;;;;;9.63;8.80;;;15.20;57.70;;;;;;5051905;28;20174;-68
2022/11/19 06:11:47;;;;;;;9.13;8.32;;;15.30;57.60;;;;;;5052800;28;20175;-68
2022/11/19 06:14:23;;;;;;;8.00;7.30;;;15.30;58.00;;;;;;5052131;28;20233;-68
2022/11/19 06:16:53;;;;;;;8.35;7.65;;;15.50;57.60;;;;;;5052374;28;20182;-68
2022/11/19 06:19:19;;;;;;;8.27;7.57;;;15.60;57.40;;;;;;5052634;28;20234;-69
2022/11/19 06:21:44;;;;;;;8.55;7.75;;;15.70;57.00;;;;;;5052132;28;20709;-68
2022/11/19 06:24:11;;;;;;;7.63;6.93;;;16.00;57.00;;;;;;5052511;28;20505;-69
2022/11/19 06:26:37;;;;;;;7.80;7.03;;;16.10;56.70;;;;;;5053046;28;20614;-68
2022/11/19 06:29:02;;;;;;;8.02;7.22;;;16.40;56.50;;;;;;5051555;28;20216;-67
2022/11/19 06:31:28;;;;;;;7.10;6.50;;;16.50;56.20;;;;;;5052809;28;20261;-67
2022/11/19 06:33:53;;;;;;;7.07;6.38;;;16.70;55.80;;;;;;5054526;28;20304;-66
2022/11/19 06:36:19;;;;;;;7.80;7.10;;;16.80;55.40;;;;;;5055744;28;20717;-67
2022/11/19 06:38:45;;;;;;;6.90;6.30;;;16.90;55.20;;;;;;5056617;28;20220;-67
2022/11/19 06:41:10;;;;;;;7.53;6.82;;;17.10;55.00;;;;;;5056337;28;20176;-68
2022/11/19 06:43:36;;;;;;;6.68;6.07;;;17.20;54.70;;;;;;5056005;28;20179;-68
2022/11/19 06:46:01;;;;;;;6.97;6.28;;;17.30;54.60;;;;;;5056293;28;20179;-68
2022/11/19 06:48:27;;;;;;;7.13;6.45;;;17.20;54.50;;;;;;5056818;28;20175;-68
2022/11/19 06:50:52;;;;;;;7.30;6.60;;;17.20;54.60;;;;;;5055724;28;20175;-68
2022/11/19 06:53:18;;;;;;;6.70;6.20;;;17.10;54.50;;;;;;5056188;28;20181;-68
2022/11/19 06:55:43;;;;;;;6.55;5.95;;;17.10;54.70;;;;;;5056225;28;20197;-68
2022/11/19 06:58:09;;;;;;;7.03;6.40;;;17.00;54.80;;;;;;5055237;28;20598;-69
2022/11/19 07:00:34;;;;;;;7.60;6.90;;;17.00;54.90;;;;;;5055938;28;20762;-68
2022/11/19 07:03:00;;;;;;;6.88;6.38;;;16.90;54.90;;;;;;5055926;28;20249;-67
2022/11/19 07:05:25;;;;;;;7.20;6.60;;;16.90;54.90;;;;;;5055144;28;20179;-68
2022/11/19 07:07:51;;;;;;;6.30;5.80;;;16.90;54.90;;;;;;5056246;28;20274;-67
2022/11/19 07:10:17;;;;;;;7.07;6.47;;;16.80;55.00;;;;;;5055929;28;20171;-67
2022/11/19 07:12:42;;;;;;;6.85;6.25;;;16.80;55.10;;;;;;5055183;28;20175;-68
2022/11/19 07:15:08;;;;;;;7.07;6.38;;;16.80;55.00;;;;;;5055511;28;20698;-68
2022/11/19 07:17:34;;;;;;;7.45;6.75;;;16.90;55.10;;;;;;5055847;28;20664;-68
2022/11/19 07:19:59;;;;;;;6.35;5.85;;;16.90;55.10;;;;;;5054738;28;20218;-68
2022/11/19 07:22:26;;;;;;;6.82;6.22;;;16.90;55.00;;;;;;5055714;28;20206;-68
2022/11/19 07:24:51;;;;;;;6.75;6.15;;;17.10;54.90;;;;;;5054812;28;20179;-68
2022/11/19 07:27:17;;;;;;;7.72;7.07;;;17.10;54.70;;;;;;5055544;28;20179;-67
2022/11/19 07:29:42;;;;;;;6.60;6.00;;;17.10;54.60;;;;;;5055748;28;20186;-68
2022/11/19 07:32:07;;;;;;;6.63;6.05;;;17.10;54.60;;;;;;5054715;28;20167;-67
2022/11/19 07:34:33;;;;;;;6.30;5.80;;;17.00;54.60;;;;;;5055750;28;20297;-67
2022/11/19 07:36:59;;;;;;;7.03;6.43;;;17.00;54.60;;;;;;5055675;28;20661;-69
2022/11/19 07:39:24;;;;;;;7.40;6.70;;;17.10;54.60;;;;;;5054478;28;20207;-69
2022/11/19 07:44:33;;;;;;;7.10;6.50;;;17.40;54.10;;;;;;5054893;28;20661;-68
2022/11/19 07:46:59;;;;;;;6.07;5.50;;;17.60;53.90;;;;;;5054537;28;20175;-68
2022/11/19 07:49:25;;;;;;;6.05;5.55;;;17.70;53.60;;;;;;5055287;28;20261;-68
2022/11/19 07:51:51;;;;;;;8.00;6.63;;;17.80;53.50;;;;;;5055105;28;20190;-68
2022/11/19 07:54:17;;;;;;;6.80;6.20;;;17.90;53.40;;;;;;5054227;28;20171;-67
2022/11/19 07:56:42;;;;;;;6.78;6.07;;;17.90;53.20;;;;;;5055524;28;20182;-67
2022/11/19 07:59:08;;;;;;;6.45;5.85;;;17.90;53.10;;;;;;5054721;28;20281;-68
2022/11/19 08:01:34;;;;;;;6.90;5.93;;;18.00;53.20;;;;;;5054278;28;20211;-66
2022/11/19 08:04:00;;;;;;;7.07;6.47;;;18.00;53.30;;;;;;5054713;28;20175;-66
2022/11/19 08:06:26;;;;;;;6.20;5.60;;;18.10;53.50;;;;;;5054645;28;20182;-68
2022/11/19 08:08:53;;;;;;;7.15;6.10;;;18.10;53.20;;;;;;5054065;28;20613;-67
2022/11/19 08:11:18;;;;;;;6.63;5.93;;;18.20;53.20;;;;;;5054642;28;20531;-67
2022/11/19 08:13:44;;;;;;;6.53;5.93;;;18.20;53.10;;;;;;5054531;28;20183;-67
2022/11/19 08:16:11;;;;;;;7.15;6.25;;;18.20;53.10;;;;;;5053585;28;20181;-67
2022/11/19 08:18:37;;;;;;;10.73;5.68;;;18.30;53.10;;;;;;5054585;28;20182;-68
2022/11/19 08:21:06;;;;;;;6.50;5.85;;;18.30;53.20;;;;;;5053494;28;20207;-68
2022/11/19 08:23:32;;;;;;;7.90;5.55;;;18.30;53.20;;;;;;5054747;28;20182;-64
2022/11/19 08:25:58;;;;;;;6.43;5.20;;;18.30;53.30;;;;;;5053396;28;20575;-68
2022/11/19 08:28:24;;;;;;;6.18;5.47;;;18.30;53.30;;;;;;5053482;28;20175;-68
2022/11/19 08:30:49;;;;;;;7.63;5.38;;;18.30;53.20;;;;;;5054601;28;20259;-67
2022/11/19 08:33:15;;;;;;;6.72;5.60;;;18.40;53.40;;;;;;5054228;28;20179;-67
2022/11/19 08:35:41;;;;;;;5.50;4.95;;;18.40;53.90;;;;;;5053555;28;20259;-67
2022/11/19 08:38:07;;;;;;;6.75;5.47;;;18.50;53.30;;;;;;5053938;28;20676;-68
2022/11/19 08:40:33;;;;;;;5.78;5.18;;;18.50;53.30;;;;;;5054413;28;20207;-67
2022/11/19 08:42:58;;;;;;;5.75;4.90;;;18.60;53.20;;;;;;5053657;28;20697;-68
2022/11/19 08:45:28;;;;;;;6.22;5.13;;;18.50;53.20;;;;;;5054019;28;20228;-68
2022/11/19 08:47:54;;;;;;;5.60;5.00;;;18.60;53.20;;;;;;5054206;28;20179;-68
2022/11/19 08:50:20;;;;;;;5.90;4.85;;;18.70;53.20;;;;;;5053076;28;20203;-67
2022/11/19 08:52:45;;;;;;;5.72;5.05;;;18.80;53.20;;;;;;5054747;28;20182;-68
2022/11/19 08:55:11;;;;;;;5.13;4.63;;;18.70;53.20;;;;;;5053442;28;20183;-67
2022/11/19 08:57:37;;;;;;;6.57;5.28;;;18.70;53.30;;;;;;5052688;28;20179;-67
2022/11/19 09:00:03;;;;;;;5.97;4.85;;;18.70;53.40;;;;;;5053393;28;20256;-68
2022/11/19 09:02:28;;;;;;;5.55;5.05;;;18.50;53.40;;;;;;5054127;28;20175;-67
2022/11/19 09:04:54;;;;;;;6.05;5.45;;;18.50;53.70;;;;;;5053045;28;20309;-68
2022/11/19 09:07:19;;;;;;;6.32;5.50;;;18.50;54.00;;;;;;5053641;28;20258;-67
2022/11/19 09:09:45;;;;;;;4.95;4.50;;;18.40;54.10;;;;;;5053962;28;20257;-67
2022/11/19 09:12:10;;;;;;;7.32;5.50;;;18.30;54.40;;;;;;5052972;28;20301;-68
2022/11/19 09:14:36;;;;;;;5.22;4.78;;;18.20;54.60;;;;;;5053581;28;20230;-67
2022/11/19 09:17:01;;;;;;;5.47;4.95;;;18.10;54.60;;;;;;5053372;28;20167;-68
2022/11/19 09:19:27;;;;;;;5.63;4.57;;;18.10;54.60;;;;;;5052581;28;20198;-68
2022/11/19 09:21:52;;;;;;;5.30;4.80;;;18.10;54.70;;;;;;5053669;28;20218;-68
2022/11/19 09:24:18;;;;;;;5.38;4.88;;;18.10;54.80;;;;;;5052893;28;20618;-68
2022/11/19 09:26:43;;;;;;;4.72;4.32;;;18.10;55.00;;;;;;5052957;28;20183;-67
2022/11/19 09:29:09;;;;;;;5.05;4.63;;;18.00;55.00;;;;;;5053175;28;20663;-67
2022/11/19 09:31:34;;;;;;;6.00;5.50;;;18.00;55.10;;;;;;5052657;28;20258;-67
2022/11/19 09:34:00;;;;;;;5.30;4.80;;;17.90;55.20;;;;;;5052965;28;20578;-67
2022/11/19 09:36:25;;;;;;;6.00;5.00;;;17.90;55.20;;;;;;5053301;28;20182;-67
2022/11/19 09:38:55;;;;;;;5.32;4.82;;;17.90;55.20;;;;;;5052446;28;20202;-67
2022/11/19 09:41:32;;;;;;;5.63;5.13;;;17.90;55.40;;;;;;5053085;28;20233;-68
2022/11/19 09:44:25;;;;;;;5.55;5.05;;;17.90;55.50;;;;;;5053210;28;20171;-68
2022/11/19 09:47:22;;;;;;;5.78;4.80;;;17.90;55.40;;;;;;5051400;28;20175;-67
2022/11/19 09:50:10;;;;;;;4.90;4.50;;;17.90;55.30;;;;;;5053226;28;20172;-68
2022/11/19 09:52:39;;;;;;;6.93;5.13;;;17.90;55.30;;;;;;5036777;28;20187;-70
2022/11/19 09:55:05;;;;;;;5.90;5.30;;;17.90;55.40;;;;;;5051738;28;20182;-68
2022/11/19 09:57:41;;;;;;;5.10;4.50;;;17.80;55.50;;;;;;5052891;28;20544;-68
2022/11/19 10:00:08;;;;;;;6.47;4.93;;;17.70;55.50;;;;;;5051934;28;20262;-68
2022/11/19 10:02:33;;;;;;;5.25;4.78;;;17.70;55.60;;;;;;5053047;28;20175;-68
2022/11/19 10:04:59;;;;;;;5.43;4.93;;;17.70;55.70;;;;;;5051814;28;20637;-68
2022/11/19 10:07:44;;;;;;;6.00;4.63;;;17.70;55.70;;;;;;5050810;28;20582;-68
2022/11/19 10:10:22;;;;;;;5.57;4.97;;;17.80;55.60;;;;;;5051378;28;20179;-68
2022/11/19 10:13:38;;;;;;;5.13;4.50;;;17.90;55.60;;;;;;5051741;28;20179;-68
2022/11/19 10:16:25;;;;;;;5.15;4.65;;;17.80;55.40;;;;;;5030413;28;20677;-68
2022/11/19 10:18:56;;;;;;;4.78;4.38;;;17.80;55.50;;;;;;5030767;28;20232;-69
2022/11/19 10:21:30;;;;;;;5.10;4.30;;;17.70;55.60;;;;;;5043927;28;20205;-69
2022/11/19 10:24:26;;;;;;;5.90;4.97;;;17.70;55.70;;;;;;5052684;28;20186;-68
2022/11/19 10:26:57;;;;;;;4.78;4.32;;;17.70;55.70;;;;;;5052747;28;20182;-67
2022/11/19 10:29:23;;;;;;;5.00;4.60;;;17.70;55.70;;;;;;5050756;28;20265;-67
2022/11/19 10:31:49;;;;;;;5.00;4.60;;;17.80;55.70;;;;;;5034976;28;20637;-67
2022/11/19 10:34:29;;;;;;;4.93;4.53;;;17.80;55.80;;;;;;5034825;28;20201;-67
2022/11/19 10:37:04;;;;;;;4.50;4.10;;;17.90;55.60;;;;;;5052069;28;20174;-67
2022/11/19 10:39:42;;;;;;;4.80;4.20;;;17.90;55.70;;;;;;5035118;28;20672;-67
2022/11/19 10:42:11;;;;;;;4.60;4.20;;;18.00;55.60;;;;;;5051645;28;20617;-68
2022/11/19 10:44:39;;;;;;;4.57;4.18;;;18.00;55.50;;;;;;5051490;28;20629;-68
2022/11/19 10:47:21;;;;;;;4.65;4.25;;;17.90;55.50;;;;;;5051046;28;20193;-67
2022/11/19 10:49:50;;;;;;;4.15;3.85;;;17.90;55.50;;;;;;5035842;28;20171;-68
2022/11/19 10:52:36;;;;;;;4.68;4.05;;;17.80;55.50;;;;;;5051214;28;20294;-68
2022/11/19 10:55:24;;;;;;;4.57;4.18;;;17.90;55.70;;;;;;5035441;28;20179;-68
2022/11/19 10:58:02;;;;;;;4.20;3.85;;;17.90;55.70;;;;;;5047638;28;20175;-67
2022/11/19 11:00:27;;;;;;;4.55;4.15;;;17.90;55.60;;;;;;5051345;28;20267;-68
2022/11/19 11:02:57;;;;;;;4.75;4.35;;;18.00;55.70;;;;;;5050724;28;20258;-68
2022/11/19 11:05:22;;;;;;;4.43;4.10;;;18.00;55.60;;;;;;5051873;28;20656;-67
2022/11/19 11:07:50;;;;;;;4.22;3.92;;;18.10;55.60;;;;;;5050956;28;20175;-68
2022/11/19 11:10:32;;;;;;;4.32;3.92;;;18.10;55.50;;;;;;5051472;28;20175;-68
2022/11/19 11:15:49;;;;;;;4.47;3.75;;;18.00;55.50;;;;;;5052216;28;20225;-67
2022/11/19 11:18:15;;;;;;;4.40;4.03;;;18.00;55.50;;;;;;5051165;28;20537;-68
2022/11/19 11:20:48;;;;;;;4.80;4.40;;;17.90;55.60;;;;;;5054949;28;20215;-68
2022/11/19 11:23:18;;;;;;;3.95;3.55;;;18.00;55.50;;;;;;5054309;28;20535;-68
2022/11/19 11:25:55;;;;;;;4.13;3.83;;;18.10;55.40;;;;;;5053972;28;20253;-67
2022/11/19 11:28:21;;;;;;;4.25;3.92;;;18.10;55.30;;;;;;5055486;28;20547;-67
2022/11/19 11:30:56;;;;;;;4.20;3.90;;;18.10;55.20;;;;;;5055596;28;20629;-67
2022/11/19 11:33:28;;;;;;;4.50;3.60;;;18.10;55.30;;;;;;5055146;28;20729;-67
2022/11/19 11:35:56;;;;;;;4.13;3.70;;;18.10;55.30;;;;;;5055617;28;20217;-67
2022/11/19 11:38:22;;;;;;;3.97;3.67;;;18.00;55.20;;;;;;5054648;28;20190;-67
2022/11/19 11:41:10;;;;;;;4.07;3.78;;;18.10;55.50;;;;;;5054415;28;20211;-67
2022/11/19 11:43:37;;;;;;;4.63;4.22;;;18.10;55.50;;;;;;5054328;28;20254;-67
2022/11/19 11:46:05;;;;;;;3.70;3.40;;;18.10;55.60;;;;;;5053399;28;20175;-67
2022/11/19 11:48:36;;;;;;;4.28;3.88;;;18.20;55.60;;;;;;5055443;28;20237;-68
2022/11/19 11:51:01;;;;;;;4.15;3.72;;;18.10;55.50;;;;;;5053924;28;20644;-67
2022/11/19 11:53:29;;;;;;;4.00;3.70;;;18.20;55.50;;;;;;5053463;28;20688;-67
2022/11/19 11:55:58;;;;;;;3.80;3.50;;;18.10;55.60;;;;;;5055256;28;20175;-67
2022/11/19 11:58:33;;;;;;;3.60;3.30;;;18.10;55.60;;;;;;5055016;28;20537;-67
2022/11/19 12:01:14;;;;;;;3.72;3.30;;;18.10;55.70;;;;;;5053249;28;20206;-68
2022/11/19 12:03:53;;;;;;;4.18;3.78;;;18.10;55.80;;;;;;5055018;28;20171;-68
2022/11/19 12:06:18;;;;;;;3.60;3.30;;;18.10;55.70;;;;;;5053936;28;20208;-68
2022/11/19 12:09:07;;;;;;;4.20;3.80;;;18.10;55.60;;;;;;5037308;28;20197;-67
2022/11/19 12:11:53;;;;;;;3.72;3.42;;;18.10;55.50;;;;;;5053949;28;20179;-68
2022/11/19 12:14:26;;;;;;;3.80;3.50;;;18.10;55.60;;;;;;5052557;28;20223;-68
2022/11/19 12:17:11;;;;;;;3.78;3.47;;;18.10;55.70;;;;;;5037974;28;20214;-68
2022/11/19 12:19:48;;;;;;;3.85;3.55;;;18.00;55.80;;;;;;5054837;28;20218;-68
2022/11/19 12:22:23;;;;;;;3.60;3.30;;;18.00;55.80;;;;;;5053719;28;20254;-68
2022/11/19 12:25:18;;;;;;;3.80;3.50;;;18.00;55.80;;;;;;5054612;28;20529;-68
2022/11/19 12:27:51;;;;;;;3.53;3.25;;;18.10;55.80;;;;;;5051633;28;20186;-68
2022/11/19 12:30:22;;;;;;;3.53;3.33;;;18.10;55.80;;;;;;5053204;28;20235;-67
2022/11/19 12:33:08;;;;;;;4.22;3.42;;;18.10;55.70;;;;;;5053760;28;20579;-67
2022/11/19 12:35:43;;;;;;;4.13;3.78;;;18.00;55.80;;;;;;5053831;28;20185;-67
2022/11/19 12:38:18;;;;;;;3.70;3.30;;;18.00;55.80;;;;;;5054370;28;20167;-67
2022/11/19 12:40:51;;;;;;;4.35;3.40;;;18.00;55.90;;;;;;5054241;28;20255;-68
2022/11/19 12:43:41;;;;;;;3.78;3.45;;;18.00;55.90;;;;;;5052222;28;20179;-68
2022/11/19 12:46:19;;;;;;;3.40;3.20;;;18.00;55.80;;;;;;5054161;28;20199;-68
2022/11/19 12:49:03;;;;;;;3.25;3.00;;;18.00;55.70;;;;;;5053649;28;20182;-68
2022/11/19 12:51:53;;;;;;;3.35;3.05;;;18.10;55.70;;;;;;5054314;28;20210;-67
2022/11/19 12:54:33;;;;;;;3.67;3.30;;;18.00;55.70;;;;;;5053715;28;20186;-68
2022/11/19 12:57:12;;;;;;;4.43;3.45;;;18.00;56.40;;;;;;5037143;28;20174;-67
2022/11/19 13:00:04;;;;;;;3.50;3.20;;;18.00;55.70;;;;;;5052854;28;20210;-68
2022/11/19 13:02:36;;;;;;;3.38;3.10;;;17.90;55.70;;;;;;5053196;28;20262;-68
2022/11/19 13:05:06;;;;;;;3.10;2.80;;;17.90;55.80;;;;;;5052486;28;20187;-68
2022/11/19 13:07:36;;;;;;;3.33;3.03;;;17.90;55.80;;;;;;5036630;28;20586;-68
2022/11/19 13:10:14;;;;;;;2.80;2.60;;;18.00;55.70;;;;;;5051601;28;20265;-68
2022/11/19 13:12:45;;;;;;;3.30;3.00;;;18.00;55.60;;;;;;5037072;28;20208;-67
2022/11/19 13:15:25;;;;;;;3.53;3.22;;;18.00;55.60;;;;;;5052071;28;20255;-68